Time;durP1;ratioP1;P1;durP2;ratioP2;P2;SDS_P1;SDS_P2;PMS_P1;PMS_P2;Temp;Humidity;BMP_temperature;BMP_pressure;BME280_temperature;BME280_humidity;BME280_pressure;Samples;Min_cycle;Max_cycle;Signal;HPM_P1;HPM_P2
2023/10/10 00:00:27;;;;;;;2.80;0.80;;;16.40;1.00;;;;;;5115137;28;20428;-60
2023/10/10 00:02:55;;;;;;;3.55;0.90;;;16.40;1.00;;;;;;5115240;28;20416;-59
2023/10/10 00:05:33;;;;;;;3.20;0.90;;;16.30;1.00;;;;;;5115599;28;20843;-59
2023/10/10 00:08:05;;;;;;;6.32;0.90;;;16.30;1.00;;;;;;5115568;28;20466;-59
2023/10/10 00:10:34;;;;;;;2.20;0.80;;;16.30;1.00;;;;;;5115009;28;20510;-59
2023/10/10 00:13:03;;;;;;;4.72;0.90;;;16.30;1.00;;;;;;5115153;28;20428;-59
2023/10/10 00:15:33;;;;;;;5.15;0.90;;;16.30;1.00;;;;;;5115399;28;20766;-58
2023/10/10 00:18:06;;;;;;;2.90;0.83;;;16.20;1.00;;;;;;5115667;28;20420;-59
2023/10/10 00:20:41;;;;;;;2.80;0.80;;;16.20;7.50;;;;;;5114684;28;20450;-58
2023/10/10 00:23:12;;;;;;;3.50;0.90;;;16.20;39.50;;;;;;5114954;28;20454;-59
2023/10/10 00:25:45;;;;;;;3.75;0.90;;;16.20;91.80;;;;;;5115482;28;20420;-61
2023/10/10 00:28:18;;;;;;;3.47;0.75;;;16.20;99.90;;;;;;5115669;28;20847;-57
2023/10/10 00:30:46;;;;;;;2.70;0.80;;;16.10;99.90;;;;;;5115012;28;20863;-59
2023/10/10 00:33:21;;;;;;;1.90;0.70;;;16.10;99.90;;;;;;5115039;28;20424;-59
2023/10/10 00:35:48;;;;;;;3.03;0.80;;;16.00;99.90;;;;;;5115223;28;20719;-59
2023/10/10 00:38:22;;;;;;;4.10;0.80;;;16.00;99.90;;;;;;5115323;28;20431;-60
2023/10/10 00:40:50;;;;;;;3.10;1.00;;;16.00;99.90;;;;;;5114613;28;20428;-59
2023/10/10 00:43:22;;;;;;;2.93;0.80;;;15.90;99.90;;;;;;5114770;28;20417;-59
2023/10/10 00:45:52;;;;;;;6.72;0.80;;;15.90;99.90;;;;;;5115026;28;20424;-58
2023/10/10 00:48:23;;;;;;;4.32;0.85;;;15.90;99.90;;;;;;5114232;28;20428;-58
2023/10/10 00:50:53;;;;;;;2.00;0.60;;;15.90;99.90;;;;;;5114939;28;20439;-58
2023/10/10 00:53:26;;;;;;;2.15;0.70;;;15.90;99.90;;;;;;5114852;28;20835;-59
2023/10/10 00:55:56;;;;;;;2.60;0.80;;;15.90;99.90;;;;;;5114577;28;20460;-58
2023/10/10 00:58:35;;;;;;;1.70;0.60;;;15.80;1.00;;;;;;5118388;28;20442;-58
2023/10/10 01:01:07;;;;;;;1.83;0.70;;;15.80;99.90;;;;;;5118672;28;20405;-59
2023/10/10 01:03:34;;;;;;;3.30;0.70;;;15.80;1.00;;;;;;5119152;28;20438;-58
2023/10/10 01:06:06;;;;;;;2.45;0.70;;;15.80;1.00;;;;;;5118706;28;20898;-59
2023/10/10 01:08:59;;;;;;;3.20;0.70;;;15.80;1.00;;;;;;5119073;28;20412;-59
2023/10/10 01:11:26;;;;;;;2.60;0.70;;;15.80;1.00;;;;;;5118168;28;20408;-59
2023/10/10 01:13:53;;;;;;;3.40;0.82;;;15.70;1.00;;;;;;5118022;28;20416;-62
2023/10/10 01:16:24;;;;;;;1.60;0.70;;;15.70;1.00;;;;;;5118608;28;20442;-59
2023/10/10 01:18:57;;;;;;;3.58;0.80;;;15.70;1.00;;;;;;5118282;28;20428;-59
2023/10/10 01:21:31;;;;;;;3.50;0.77;;;15.70;1.00;;;;;;5118464;28;20424;-58
2023/10/10 01:24:06;;;;;;;1.98;0.70;;;15.70;1.00;;;;;;5118094;28;20451;-57
2023/10/10 01:26:37;;;;;;;2.33;0.70;;;15.70;1.00;;;;;;5117155;28;20520;-58
2023/10/10 01:29:14;;;;;;;4.13;0.70;;;15.60;1.00;;;;;;5116080;28;20503;-59
2023/10/10 01:31:42;;;;;;;2.20;0.80;;;15.60;24.50;;;;;;5115547;28;20525;-58
2023/10/10 01:34:10;;;;;;;2.90;0.90;;;15.60;99.90;;;;;;5116595;28;20626;-58
2023/10/10 01:36:40;;;;;;;3.70;1.00;;;15.60;99.90;;;;;;5116524;28;20825;-58
2023/10/10 01:39:21;;;;;;;3.22;0.80;;;15.60;99.90;;;;;;5116341;28;20530;-58
2023/10/10 01:41:53;;;;;;;3.50;0.80;;;15.60;99.90;;;;;;5117364;28;20424;-57
2023/10/10 01:44:22;;;;;;;2.33;0.80;;;15.60;85.60;;;;;;5116894;28;20420;-59
2023/10/10 01:46:51;;;;;;;2.10;0.75;;;15.60;99.90;;;;;;5115936;28;20485;-59
2023/10/10 01:49:22;;;;;;;3.10;0.80;;;15.60;99.90;;;;;;5116394;28;20420;-58
2023/10/10 01:51:58;;;;;;;3.58;0.80;;;15.50;1.00;;;;;;5116236;28;20432;-59
2023/10/10 01:54:39;;;;;;;2.03;0.80;;;15.50;1.00;;;;;;5116221;28;20431;-58
2023/10/10 01:57:09;;;;;;;2.60;0.80;;;15.50;1.00;;;;;;5116685;28;20424;-58
2023/10/10 01:59:38;;;;;;;2.20;0.70;;;15.50;1.00;;;;;;5117027;28;20468;-58
2023/10/10 02:02:09;;;;;;;5.45;0.90;;;15.50;1.00;;;;;;5117473;28;20416;-58
2023/10/10 02:04:37;;;;;;;1.60;0.70;;;15.50;1.00;;;;;;5116253;28;20496;-58
2023/10/10 02:07:07;;;;;;;2.53;0.80;;;15.40;99.90;;;;;;5116581;28;20432;-58
2023/10/10 02:09:35;;;;;;;3.97;0.70;;;15.40;65.30;;;;;;5116567;27;20420;-59
2023/10/10 02:12:16;;;;;;;3.40;0.70;;;15.40;1.00;;;;;;5116865;28;20723;-58
2023/10/10 02:14:44;;;;;;;2.07;0.70;;;15.40;99.90;;;;;;5115722;28;20719;-59
2023/10/10 02:17:26;;;;;;;4.90;0.90;;;15.30;99.90;;;;;;5116668;28;20420;-59
2023/10/10 02:19:57;;;;;;;2.73;0.80;;;15.30;99.90;;;;;;5116174;28;20436;-58
2023/10/10 02:22:47;;;;;;;2.50;0.80;;;15.30;99.90;;;;;;5115868;28;20428;-59
2023/10/10 02:28:02;;;;;;;2.25;0.70;;;15.30;1.00;;;;;;5115570;28;20716;-57
2023/10/10 02:30:36;;;;;;;2.83;0.82;;;15.30;1.00;;;;;;5115865;28;20416;-60
2023/10/10 02:33:14;;;;;;;4.00;0.82;;;15.30;25.40;;;;;;5115818;28;20831;-57
2023/10/10 02:35:55;;;;;;;3.80;0.80;;;15.30;99.90;;;;;;5116648;28;20827;-59
2023/10/10 02:38:31;;;;;;;3.88;0.98;;;15.20;99.90;;;;;;5117324;28;20412;-58
2023/10/10 02:41:14;;;;;;;2.60;0.70;;;15.20;99.90;;;;;;5116469;28;20900;-58
2023/10/10 02:43:54;;;;;;;4.30;1.10;;;15.20;1.00;;;;;;5115234;28;20427;-58
2023/10/10 02:46:33;;;;;;;3.00;1.10;;;15.30;1.00;;;;;;5116625;28;20419;-58
2023/10/10 02:49:09;;;;;;;2.10;0.80;;;15.20;1.00;;;;;;5116708;28;20735;-59
2023/10/10 02:51:41;;;;;;;2.38;0.80;;;15.20;1.00;;;;;;5116905;28;20474;-58
2023/10/10 02:59:51;;;;;;;3.78;0.90;;;15.20;99.90;;;;;;5115604;28;20443;-59
2023/10/10 03:02:21;;;;;;;4.35;0.90;;;15.10;1.00;;;;;;5115314;28;21016;-59
2023/10/10 03:05:05;;;;;;;4.10;0.90;;;15.00;1.00;;;;;;5114564;28;20518;-57
2023/10/10 03:07:35;;;;;;;4.90;1.00;;;15.00;1.00;;;;;;5116758;28;20428;-58
2023/10/10 03:10:38;;;;;;;3.30;0.90;;;15.00;1.00;;;;;;5115962;28;20459;-55
2023/10/10 03:13:13;;;;;;;6.45;1.00;;;15.00;1.00;;;;;;5115796;28;20427;-58
2023/10/10 03:15:50;;;;;;;3.60;0.90;;;15.00;54.90;;;;;;5116114;28;20997;-58
2023/10/10 03:18:27;;;;;;;4.18;0.80;;;15.00;99.90;;;;;;5115708;28;20507;-58
2023/10/10 03:23:52;;;;;;;3.95;1.10;;;14.90;99.90;;;;;;5113963;28;20758;-58
2023/10/10 03:26:34;;;;;;;3.20;0.80;;;14.90;67.50;;;;;;5114460;28;20416;-56
2023/10/10 03:29:10;;;;;;;3.60;0.82;;;14.80;99.90;;;;;;5114676;28;20424;-58
2023/10/10 03:31:42;;;;;;;3.37;0.70;;;14.80;99.90;;;;;;5114776;28;20420;-59
2023/10/10 03:34:19;;;;;;;2.10;0.85;;;14.80;99.90;;;;;;5114287;28;20714;-54
2023/10/10 03:37:27;;;;;;;2.90;0.80;;;14.80;99.90;;;;;;5115392;28;20455;-57
2023/10/10 03:39:43;;;;;;;3.03;0.88;;;14.80;99.90;;;;;;5115445;28;20707;-58
2023/10/10 05:24:09;;;;;;;2.17;0.87;;;14.90;99.90;;;;;;5114151;28;20504;-57
2023/10/10 05:26:46;;;;;;;4.90;0.90;;;14.90;99.90;;;;;;5112536;28;20494;-58
2023/10/10 05:29:13;;;;;;;2.70;0.90;;;15.00;99.90;;;;;;5113711;28;20443;-57
2023/10/10 05:31:44;;;;;;;2.90;0.93;;;14.90;99.90;;;;;;5113434;28;20416;-58
2023/10/10 05:34:14;;;;;;;3.08;0.90;;;14.90;99.90;;;;;;5113893;28;20424;-59
2023/10/10 05:36:44;;;;;;;4.28;0.80;;;14.80;99.90;;;;;;5113689;28;20420;-59
2023/10/10 05:39:17;;;;;;;3.72;0.85;;;14.90;99.90;;;;;;5114480;28;20547;-58
2023/10/10 05:41:44;;;;;;;3.67;0.88;;;14.90;99.90;;;;;;5115844;27;20435;-58
2023/10/10 05:44:13;;;;;;;4.97;0.93;;;14.90;99.90;;;;;;5115738;28;20408;-59
2023/10/10 05:46:40;;;;;;;4.93;1.10;;;14.90;99.90;;;;;;5115261;28;20717;-58
2023/10/10 05:49:08;;;;;;;2.20;0.90;;;15.00;99.90;;;;;;5113903;28;20431;-59
2023/10/10 05:51:35;;;;;;;3.13;0.90;;;14.90;99.90;;;;;;5114861;28;20456;-59
2023/10/10 05:54:03;;;;;;;3.65;0.90;;;14.70;99.90;;;;;;5115223;28;20734;-57
2023/10/10 05:56:34;;;;;;;5.32;1.00;;;14.70;99.90;;;;;;5114562;28;20419;-59
2023/10/10 05:59:02;;;;;;;2.30;0.90;;;14.80;99.90;;;;;;5114368;28;20412;-58
2023/10/10 06:01:30;;;;;;;3.83;1.10;;;14.80;99.90;;;;;;5114642;28;20854;-58
2023/10/10 06:03:58;;;;;;;3.83;0.88;;;14.90;99.90;;;;;;5114428;28;20872;-58
2023/10/10 06:06:27;;;;;;;2.40;0.80;;;14.90;99.90;;;;;;5114512;28;20420;-58
2023/10/10 06:09:00;;;;;;;4.60;0.93;;;14.80;99.90;;;;;;5115483;28;20424;-58
2023/10/10 06:11:29;;;;;;;2.90;0.90;;;14.80;99.90;;;;;;5115177;28;20507;-58
2023/10/10 06:13:57;;;;;;;1.43;0.80;;;14.90;99.90;;;;;;5112849;28;20415;-58
2023/10/10 06:16:25;;;;;;;3.03;0.90;;;14.90;99.90;;;;;;5111499;28;20420;-58
2023/10/10 06:18:52;;;;;;;6.22;0.90;;;14.90;99.90;;;;;;5113266;28;20473;-59
2023/10/10 06:21:20;;;;;;;3.25;0.80;;;14.90;99.90;;;;;;5111856;28;20455;-58
2023/10/10 06:23:49;;;;;;;3.00;0.82;;;14.80;99.90;;;;;;5111767;28;20789;-58
2023/10/10 06:26:21;;;;;;;3.40;0.82;;;14.90;1.00;;;;;;5113965;28;20418;-57
2023/10/10 06:28:53;;;;;;;5.20;0.90;;;14.90;99.90;;;;;;5114284;27;20535;-58
2023/10/10 06:31:21;;;;;;;4.18;1.00;;;15.00;99.90;;;;;;5113333;28;20427;-58
2023/10/10 06:33:50;;;;;;;4.20;1.00;;;15.20;99.90;;;;;;5112689;28;20427;-59
2023/10/10 06:36:33;;;;;;;5.18;1.10;;;15.20;98.20;;;;;;5112134;28;20516;-59
2023/10/10 06:39:18;;;;;;;6.15;0.90;;;15.20;33.50;;;;;;5111845;28;20844;-59
2023/10/10 06:41:50;;;;;;;3.70;0.95;;;15.10;99.90;;;;;;5114586;28;20505;-59
2023/10/10 06:44:31;;;;;;;9.05;1.00;;;15.10;99.90;;;;;;5112201;28;20435;-59
2023/10/10 06:46:59;;;;;;;3.80;1.00;;;15.10;99.90;;;;;;5113053;28;20420;-59
2023/10/10 06:49:43;;;;;;;4.60;1.08;;;15.20;99.90;;;;;;5113096;28;20839;-59
2023/10/10 06:52:14;;;;;;;5.40;1.03;;;15.20;99.90;;;;;;5113840;28;20978;-59
2023/10/10 06:54:44;;;;;;;3.40;1.08;;;15.30;1.00;;;;;;5113525;28;20846;-58
2023/10/10 06:57:17;;;;;;;4.10;1.30;;;15.30;1.00;;;;;;5112919;28;20834;-58
2023/10/10 06:59:45;;;;;;;4.90;1.00;;;15.30;1.00;;;;;;5113322;28;20799;-58
2023/10/10 07:02:20;;;;;;;3.28;0.80;;;15.30;1.00;;;;;;5113952;28;20471;-58
2023/10/10 07:04:52;;;;;;;4.90;0.95;;;15.30;19.80;;;;;;5113717;28;20424;-58
2023/10/10 07:07:26;;;;;;;2.50;0.90;;;15.40;1.00;;;;;;5112414;28;20870;-58
2023/10/10 07:09:57;;;;;;;2.40;1.00;;;15.50;1.00;;;;;;5112582;28;20424;-58
2023/10/10 07:12:28;;;;;;;2.15;0.90;;;15.60;1.00;;;;;;5110577;28;20416;-58
2023/10/10 07:14:57;;;;;;;2.88;0.95;;;15.70;99.90;;;;;;5109842;28;20423;-58
2023/10/10 07:17:27;;;;;;;4.45;1.20;;;15.70;25.80;;;;;;5110615;28;20403;-58
2023/10/10 07:22:38;;;;;;;5.43;1.10;;;15.90;1.00;;;;;;5109393;28;20874;-59
2023/10/10 07:25:07;;;;;;;4.22;1.30;;;16.00;99.90;;;;;;5109875;28;20427;-59
2023/10/10 07:27:35;;;;;;;4.38;1.00;;;16.00;99.90;;;;;;5108933;28;20516;-59
2023/10/10 07:30:16;;;;;;;4.78;1.17;;;16.00;99.90;;;;;;5108696;28;20517;-59
2023/10/10 07:32:43;;;;;;;3.92;1.00;;;16.10;24.80;;;;;;5109391;28;20412;-59
2023/10/10 07:35:14;;;;;;;3.83;1.02;;;16.20;1.00;;;;;;5110594;28;20460;-59
2023/10/10 07:37:43;;;;;;;5.82;1.20;;;16.20;99.90;;;;;;5110539;28;20459;-58
2023/10/10 07:40:21;;;;;;;4.38;1.20;;;16.40;99.90;;;;;;5110758;28;20420;-59
2023/10/10 07:42:50;;;;;;;3.30;1.10;;;16.50;1.00;;;;;;5108392;28;20473;-59
2023/10/10 07:45:27;;;;;;;4.40;1.10;;;16.50;99.90;;;;;;5110141;28;20431;-59
2023/10/10 07:50:48;;;;;;;5.97;1.00;;;16.60;99.90;;;;;;5110748;28;20403;-59
2023/10/10 07:53:17;;;;;;;3.53;1.10;;;16.70;23.70;;;;;;5112655;28;20420;-60
2023/10/10 07:55:59;;;;;;;5.13;1.27;;;16.80;1.00;;;;;;5110952;28;20460;-59
2023/10/10 07:58:29;;;;;;;2.30;1.17;;;16.90;1.00;;;;;;5111177;28;20434;-59
2023/10/10 08:01:08;;;;;;;4.70;1.30;;;17.00;1.00;;;;;;5111799;28;20639;-61
2023/10/10 08:03:35;;;;;;;7.55;1.10;;;17.00;99.90;;;;;;5112072;28;20754;-59
2023/10/10 08:06:08;;;;;;;3.00;1.02;;;17.10;99.90;;;;;;5111891;28;20435;-59
2023/10/10 08:08:36;;;;;;;4.60;1.00;;;17.10;99.90;;;;;;5113648;28;20844;-59
2023/10/10 08:11:12;;;;;;;5.32;1.30;;;17.10;76.40;;;;;;5112433;28;20452;-59
2023/10/10 08:13:41;;;;;;;5.88;1.10;;;17.10;1.00;;;;;;5112123;28;20428;-58
2023/10/10 08:16:19;;;;;;;8.85;1.10;;;17.20;1.00;;;;;;5111883;28;21338;-58
2023/10/10 08:18:55;;;;;;;2.60;0.90;;;17.30;1.00;;;;;;5113302;28;20416;-58
2023/10/10 08:21:23;;;;;;;4.47;1.20;;;17.30;1.00;;;;;;5112243;28;20439;-58
2023/10/10 08:23:56;;;;;;;4.10;1.10;;;17.40;1.00;;;;;;5110667;28;20469;-58
2023/10/10 08:26:29;;;;;;;3.67;1.20;;;17.50;1.00;;;;;;5111789;28;20515;-57
2023/10/10 08:28:56;;;;;;;4.80;1.40;;;17.60;1.00;;;;;;5112034;28;20404;-57
2023/10/10 08:31:25;;;;;;;5.53;1.02;;;17.60;1.00;;;;;;5111789;28;20732;-58
2023/10/10 08:33:52;;;;;;;4.30;1.13;;;17.60;1.00;;;;;;5113635;28;20443;-58
2023/10/10 08:36:26;;;;;;;4.80;1.30;;;17.60;1.00;;;;;;5113081;28;20477;-57
2023/10/10 08:38:56;;;;;;;5.50;1.20;;;17.50;1.00;;;;;;5112419;28;20448;-57
2023/10/10 08:41:26;;;;;;;3.40;1.20;;;17.50;1.00;;;;;;5109918;28;20912;-58
2023/10/10 08:43:57;;;;;;;6.28;1.38;;;17.60;1.00;;;;;;5107904;28;20619;-60
2023/10/10 08:46:30;;;;;;;3.00;1.10;;;17.70;1.00;;;;;;5109413;28;20549;-58
2023/10/10 08:48:59;;;;;;;4.65;0.90;;;17.90;1.00;;;;;;5110138;28;20473;-58
2023/10/10 08:51:32;;;;;;;5.20;1.00;;;17.90;1.00;;;;;;5110325;28;20457;-57
2023/10/10 08:54:01;;;;;;;7.38;1.30;;;18.00;99.90;;;;;;5108373;28;20481;-57
2023/10/10 08:56:37;;;;;;;4.43;1.13;;;18.10;99.90;;;;;;5108635;28;20412;-58
2023/10/10 08:59:04;;;;;;;3.30;1.00;;;18.30;99.90;;;;;;5109383;28;20420;-59
2023/10/10 09:01:35;;;;;;;4.95;1.05;;;18.40;99.90;;;;;;5110588;28;20863;-56
2023/10/10 09:04:04;;;;;;;2.92;0.90;;;18.50;99.90;;;;;;5111717;28;20424;-55
2023/10/10 09:06:43;;;;;;;3.05;1.00;;;18.50;99.90;;;;;;5110539;28;20857;-54
2023/10/10 09:09:33;;;;;;;3.30;0.90;;;18.50;99.90;;;;;;5111918;28;20835;-56
2023/10/10 09:12:02;;;;;;;2.72;0.90;;;18.60;99.90;;;;;;5111808;28;20423;-54
2023/10/10 09:14:40;;;;;;;3.23;1.03;;;18.70;99.90;;;;;;5110877;28;20424;-55
2023/10/10 09:17:10;;;;;;;4.90;0.90;;;18.90;99.90;;;;;;5111409;28;20416;-54
2023/10/10 09:19:47;;;;;;;5.53;1.00;;;19.00;99.90;;;;;;5113407;28;20420;-54
2023/10/10 09:22:28;;;;;;;4.20;1.00;;;19.20;99.90;;;;;;5113987;28;20845;-52
2023/10/10 09:24:56;;;;;;;5.30;1.10;;;19.30;99.90;;;;;;5113908;28;20423;-52
2023/10/10 09:27:27;;;;;;;3.70;1.00;;;19.50;99.90;;;;;;5113565;28;20469;-53
2023/10/10 09:30:00;;;;;;;2.88;1.00;;;19.70;96.20;;;;;;5112609;28;20800;-53
2023/10/10 09:32:36;;;;;;;5.28;1.30;;;19.80;74.10;;;;;;5112318;28;20448;-55
2023/10/10 09:35:06;;;;;;;3.78;1.00;;;19.90;40.00;;;;;;5112370;28;20416;-53
2023/10/10 09:37:38;;;;;;;3.80;1.00;;;20.00;27.90;;;;;;5113402;28;20508;-54
2023/10/10 09:40:15;;;;;;;2.90;1.10;;;20.20;10.40;;;;;;5114113;28;20428;-53
2023/10/10 09:43:03;;;;;;;4.03;0.90;;;20.20;2.40;;;;;;5114013;28;20951;-54
2023/10/10 09:48:46;;;;;;;4.50;1.10;;;20.50;1.00;;;;;;5113073;28;20747;-53
2023/10/10 09:51:30;;;;;;;2.58;0.90;;;20.70;1.00;;;;;;5110900;28;20523;-53
2023/10/10 09:54:15;;;;;;;4.97;1.10;;;20.80;1.00;;;;;;5111528;28;20420;-54
2023/10/10 09:56:46;;;;;;;5.40;1.00;;;21.00;1.00;;;;;;5111684;28;20430;-54
2023/10/10 09:59:15;;;;;;;3.28;0.90;;;21.00;1.00;;;;;;5110026;28;20416;-55
2023/10/10 10:01:46;;;;;;;5.30;1.10;;;21.10;1.00;;;;;;5113307;27;20859;-55
2023/10/10 10:04:19;;;;;;;3.75;1.00;;;21.20;1.00;;;;;;5113565;28;20454;-53
2023/10/10 10:07:12;;;;;;;5.10;1.10;;;21.10;1.00;;;;;;5112718;28;20424;-55
2023/10/10 10:10:12;;;;;;;3.05;0.90;;;21.00;1.00;;;;;;5109004;28;20427;-54
2023/10/10 10:13:13;;;;;;;2.53;0.93;;;21.10;1.00;;;;;;5110754;28;20530;-54
2023/10/10 10:15:50;;;;;;;3.03;0.90;;;21.30;1.00;;;;;;5111158;28;20623;-55
2023/10/10 10:18:26;;;;;;;2.85;0.90;;;21.40;1.00;;;;;;5112101;28;20420;-53
2023/10/10 10:21:16;;;;;;;3.90;0.90;;;21.30;1.00;;;;;;5111004;28;20427;-55
2023/10/10 10:23:46;;;;;;;3.95;1.00;;;21.40;1.00;;;;;;5112947;28;20408;-51
2023/10/10 10:26:22;;;;;;;6.50;0.93;;;21.50;1.00;;;;;;5111634;28;20416;-52
2023/10/10 10:28:56;;;;;;;3.55;1.00;;;21.50;1.00;;;;;;5110978;28;20424;-53
2023/10/10 10:31:28;;;;;;;2.03;1.10;;;21.60;1.00;;;;;;5114049;28;20420;-55
2023/10/10 10:34:10;;;;;;;2.78;0.80;;;21.80;1.00;;;;;;5113936;28;20424;-54
2023/10/10 10:36:43;;;;;;;4.03;1.60;;;22.00;1.00;;;;;;5113001;28;20427;-51
2023/10/10 10:39:19;;;;;;;3.65;1.00;;;22.10;1.00;;;;;;5113375;28;20427;-53
2023/10/10 10:41:53;;;;;;;3.60;0.90;;;22.30;1.00;;;;;;5113399;28;20459;-55
2023/10/10 10:44:55;;;;;;;2.88;1.13;;;22.40;1.00;;;;;;5114002;28;20456;-53
2023/10/10 10:47:45;;;;;;;3.10;0.90;;;22.30;1.00;;;;;;5097384;28;20830;-52
2023/10/10 10:50:28;;;;;;;2.30;1.00;;;22.50;1.00;;;;;;5112301;28;20842;-55
2023/10/10 10:53:05;;;;;;;5.20;1.05;;;22.60;1.00;;;;;;5114250;28;20719;-53
2023/10/10 10:55:39;;;;;;;2.78;1.00;;;22.70;1.00;;;;;;5112721;28;20463;-53
2023/10/10 10:58:07;;;;;;;2.42;0.90;;;22.60;1.00;;;;;;5113911;28;20779;-54
2023/10/10 11:00:56;;;;;;;2.95;1.00;;;22.60;1.00;;;;;;5111904;28;20426;-53
2023/10/10 11:03:25;;;;;;;5.80;1.10;;;22.60;1.00;;;;;;5112664;27;20436;-51
2023/10/10 11:05:55;;;;;;;1.80;0.90;;;22.80;1.00;;;;;;5109560;28;20428;-54
2023/10/10 11:08:51;;;;;;;4.50;1.00;;;23.00;1.00;;;;;;5110716;28;20471;-54
2023/10/10 11:11:36;;;;;;;3.22;0.93;;;23.00;1.00;;;;;;5112992;28;20420;-55
2023/10/10 11:14:09;;;;;;;5.25;0.90;;;23.00;1.00;;;;;;5112836;28;20451;-55
2023/10/10 11:16:39;;;;;;;2.40;1.00;;;23.40;1.00;;;;;;5110552;28;20447;-52
2023/10/10 11:19:25;;;;;;;5.37;1.30;;;23.50;1.00;;;;;;5107428;28;20474;-53
2023/10/10 11:21:55;;;;;;;3.60;0.90;;;23.70;1.00;;;;;;5110441;28;20541;-51
2023/10/10 11:24:26;;;;;;;3.50;1.00;;;23.90;1.00;;;;;;5114191;28;20419;-53
2023/10/10 11:27:13;;;;;;;3.50;1.00;;;23.90;1.00;;;;;;5113969;28;20467;-51
2023/10/10 11:29:44;;;;;;;4.07;1.10;;;24.00;1.00;;;;;;5112993;28;20814;-55
2023/10/10 11:32:13;;;;;;;4.73;1.00;;;24.00;1.00;;;;;;5113157;28;20419;-55
2023/10/10 11:34:44;;;;;;;2.10;1.00;;;24.10;1.00;;;;;;5113488;28;20449;-52
2023/10/10 11:37:17;;;;;;;4.30;0.90;;;24.10;1.00;;;;;;5113620;28;20428;-50
2023/10/10 11:39:52;;;;;;;2.95;0.90;;;24.10;1.00;;;;;;5112857;28;20424;-54
2023/10/10 11:42:28;;;;;;;4.40;0.90;;;24.20;1.00;;;;;;5112377;28;20761;-53
2023/10/10 11:45:01;;;;;;;3.72;0.90;;;24.20;1.00;;;;;;5111693;28;20423;-50
2023/10/10 11:47:29;;;;;;;3.83;0.80;;;24.20;1.00;;;;;;5113747;28;20819;-55
2023/10/10 11:50:05;;;;;;;2.90;1.10;;;24.20;1.00;;;;;;5111187;28;20420;-55
2023/10/10 11:52:33;;;;;;;4.00;0.95;;;24.20;1.00;;;;;;5110683;28;20416;-54
2023/10/10 11:55:03;;;;;;;5.20;0.90;;;24.20;1.00;;;;;;5111839;28;20477;-54
2023/10/10 11:57:33;;;;;;;3.05;0.90;;;24.20;1.00;;;;;;5111766;28;20806;-53
2023/10/10 12:00:07;;;;;;;4.13;1.00;;;24.20;1.00;;;;;;5110545;28;20420;-52
2023/10/10 12:02:40;;;;;;;5.35;1.00;;;24.30;1.00;;;;;;5107256;28;20428;-53
2023/10/10 12:05:35;;;;;;;3.22;0.90;;;24.20;1.00;;;;;;5107989;28;20494;-56
2023/10/10 12:08:06;;;;;;;2.25;0.90;;;24.20;1.00;;;;;;5110701;28;20816;-53
2023/10/10 12:10:47;;;;;;;2.85;0.90;;;24.20;1.00;;;;;;5111180;28;20907;-55
2023/10/10 12:13:33;;;;;;;2.33;0.90;;;24.20;1.00;;;;;;5111089;28;20803;-55
2023/10/10 12:16:01;;;;;;;2.30;0.90;;;24.20;1.00;;;;;;5110686;28;20460;-54
2023/10/10 12:18:31;;;;;;;6.00;1.10;;;24.30;1.00;;;;;;5111419;28;20834;-54
2023/10/10 12:21:01;;;;;;;3.63;0.90;;;24.20;1.00;;;;;;5111867;28;20438;-57
2023/10/10 12:23:28;;;;;;;3.30;1.00;;;24.10;1.00;;;;;;5110203;28;20474;-55
2023/10/10 12:25:56;;;;;;;4.65;1.10;;;24.00;1.00;;;;;;5111164;28;20415;-55
2023/10/10 12:28:25;;;;;;;3.47;0.90;;;24.10;1.00;;;;;;5111231;28;20423;-54
2023/10/10 12:30:56;;;;;;;4.22;0.90;;;24.20;1.00;;;;;;5111604;28;20470;-52
2023/10/10 12:33:24;;;;;;;2.50;0.80;;;24.20;1.00;;;;;;5113303;28;20455;-56
2023/10/10 12:35:51;;;;;;;2.63;0.90;;;24.20;1.00;;;;;;5111449;28;20420;-53
2023/10/10 12:38:21;;;;;;;3.40;0.90;;;24.20;1.00;;;;;;5110430;28;20427;-53
2023/10/10 12:40:49;;;;;;;2.70;0.80;;;24.20;1.00;;;;;;5110198;28;20420;-53
2023/10/10 12:43:17;;;;;;;5.32;0.90;;;24.30;1.00;;;;;;5111690;28;20850;-53
2023/10/10 12:45:45;;;;;;;2.03;0.80;;;24.20;1.00;;;;;;5111556;28;20838;-53
2023/10/10 12:48:20;;;;;;;3.63;0.80;;;24.10;1.00;;;;;;5112917;28;20428;-54
2023/10/10 12:50:48;;;;;;;2.90;1.00;;;24.10;1.00;;;;;;5112395;28;20959;-54
2023/10/10 12:53:16;;;;;;;2.17;0.80;;;24.20;1.00;;;;;;5115296;28;20400;-52
2023/10/10 12:55:55;;;;;;;3.70;0.80;;;24.30;1.00;;;;;;5114961;28;20887;-54
2023/10/10 12:58:24;;;;;;;1.77;0.73;;;24.30;1.00;;;;;;5116485;28;20420;-55
2023/10/10 13:00:52;;;;;;;2.90;0.90;;;24.30;1.00;;;;;;5114467;28;20522;-55
2023/10/10 13:03:22;;;;;;;4.28;1.00;;;24.30;1.00;;;;;;5115923;28;20458;-55
2023/10/10 13:05:52;;;;;;;2.03;0.80;;;24.30;1.00;;;;;;5113876;28;20424;-55
2023/10/10 13:08:22;;;;;;;2.90;0.90;;;24.30;1.00;;;;;;5115173;28;20477;-56
2023/10/10 13:10:54;;;;;;;4.03;0.90;;;24.30;1.00;;;;;;5116368;28;20429;-55
2023/10/10 13:13:31;;;;;;;3.55;0.90;;;24.30;1.00;;;;;;5115098;28;20452;-54
2023/10/10 13:16:22;;;;;;;1.60;0.80;;;24.20;1.00;;;;;;5113925;28;20753;-65
2023/10/10 13:18:49;;;;;;;4.00;0.90;;;24.20;1.00;;;;;;5114251;28;20523;-57
2023/10/10 13:21:19;;;;;;;3.15;1.00;;;24.20;1.00;;;;;;5111913;28;20416;-56
2023/10/10 13:23:46;;;;;;;3.17;0.80;;;24.20;1.00;;;;;;5114471;28;20432;-55
2023/10/10 13:26:13;;;;;;;2.78;1.20;;;24.10;1.00;;;;;;5114591;28;20408;-56
2023/10/10 13:28:44;;;;;;;3.13;0.80;;;24.20;1.00;;;;;;5113014;28;20415;-56
2023/10/10 13:31:12;;;;;;;1.60;0.70;;;24.20;1.00;;;;;;5113923;28;20412;-57
2023/10/10 13:33:39;;;;;;;1.67;0.70;;;24.10;1.00;;;;;;5113062;28;20443;-54
2023/10/10 13:36:08;;;;;;;3.10;0.80;;;24.10;1.00;;;;;;5112004;28;20455;-58
2023/10/10 13:38:35;;;;;;;5.70;0.70;;;24.20;1.00;;;;;;5112888;28;20419;-56
2023/10/10 13:41:03;;;;;;;2.95;0.70;;;24.30;1.00;;;;;;5113510;28;20408;-55
2023/10/10 13:43:30;;;;;;;3.55;0.70;;;24.20;1.00;;;;;;5114796;28;20542;-56
2023/10/10 13:46:02;;;;;;;1.80;0.80;;;24.10;1.00;;;;;;5111981;28;20420;-58
2023/10/10 13:48:30;;;;;;;2.90;0.90;;;24.10;1.00;;;;;;5110048;28;20460;-55
2023/10/10 13:50:59;;;;;;;3.85;1.00;;;24.10;1.00;;;;;;5097127;28;20513;-57
2023/10/10 13:53:26;;;;;;;4.57;0.90;;;24.10;1.00;;;;;;5110217;28;20420;-57
2023/10/10 13:55:53;;;;;;;1.70;0.70;;;24.10;1.00;;;;;;5111337;28;20415;-57
2023/10/10 13:58:20;;;;;;;3.40;0.80;;;24.00;1.00;;;;;;5110541;28;20863;-57
2023/10/10 14:00:55;;;;;;;3.50;0.80;;;24.10;1.00;;;;;;5097356;28;20424;-56
2023/10/10 14:03:29;;;;;;;2.20;0.80;;;24.10;1.00;;;;;;5086901;28;20796;-53
2023/10/10 14:06:04;;;;;;;2.10;0.90;;;24.10;1.00;;;;;;5097417;27;20463;-57
2023/10/10 14:08:31;;;;;;;4.03;0.70;;;24.00;1.00;;;;;;5105280;27;20420;-55
2023/10/10 14:11:00;;;;;;;3.40;0.90;;;24.00;1.00;;;;;;5110364;28;20415;-56
2023/10/10 14:13:28;;;;;;;2.90;0.80;;;23.90;1.00;;;;;;5111525;28;20489;-55
2023/10/10 14:15:56;;;;;;;2.15;0.70;;;23.90;1.00;;;;;;5116683;27;20431;-54
2023/10/10 14:18:29;;;;;;;4.97;0.70;;;23.90;1.00;;;;;;5114481;28;20847;-55
2023/10/10 14:21:00;;;;;;;3.20;0.70;;;23.90;1.00;;;;;;5112615;27;20497;-55
2023/10/10 14:23:29;;;;;;;3.25;0.80;;;23.80;1.00;;;;;;5114812;27;20890;-55
2023/10/10 14:26:12;;;;;;;1.90;0.80;;;23.80;1.00;;;;;;5113837;28;20416;-54
2023/10/10 14:28:40;;;;;;;4.13;0.90;;;23.70;1.00;;;;;;5108047;28;20481;-56
2023/10/10 14:31:11;;;;;;;3.70;0.95;;;23.70;1.00;;;;;;5113301;28;20424;-57
2023/10/10 14:33:40;;;;;;;1.70;0.80;;;23.70;1.00;;;;;;5114399;28;20522;-56
2023/10/10 14:36:12;;;;;;;2.22;0.80;;;23.70;1.00;;;;;;5100324;28;20424;-56
2023/10/10 14:38:39;;;;;;;1.88;0.80;;;23.60;1.00;;;;;;5112643;27;20426;-57
2023/10/10 14:41:07;;;;;;;4.18;0.90;;;23.50;1.00;;;;;;5111719;27;20451;-57
2023/10/10 14:43:34;;;;;;;2.80;0.80;;;23.40;1.00;;;;;;5111368;28;20442;-55
2023/10/10 14:46:02;;;;;;;3.90;0.70;;;23.40;1.00;;;;;;5121283;27;20438;-56
2023/10/10 14:48:30;;;;;;;1.50;0.70;;;23.40;1.00;;;;;;5116253;27;20481;-55
2023/10/10 14:51:05;;;;;;;2.38;0.80;;;23.40;1.00;;;;;;5112672;27;20510;-56
2023/10/10 14:53:34;;;;;;;3.90;0.90;;;23.30;1.00;;;;;;5110324;27;20541;-54
2023/10/10 14:56:05;;;;;;;2.85;0.90;;;23.30;1.00;;;;;;5109324;27;20727;-56
2023/10/10 14:58:33;;;;;;;4.22;0.75;;;23.20;1.00;;;;;;5108588;27;20431;-57
2023/10/10 15:01:02;;;;;;;3.50;0.80;;;23.10;1.00;;;;;;5112488;28;20420;-56
2023/10/10 15:03:35;;;;;;;2.88;0.80;;;23.10;1.00;;;;;;5110901;28;20830;-56
2023/10/10 15:06:06;;;;;;;2.20;0.80;;;23.00;1.00;;;;;;5112873;28;20464;-56
2023/10/10 15:08:33;;;;;;;2.80;0.90;;;22.90;1.00;;;;;;5113385;28;20422;-57
2023/10/10 15:11:00;;;;;;;4.32;1.10;;;22.90;1.00;;;;;;5112933;28;20854;-56
2023/10/10 15:13:28;;;;;;;2.60;0.90;;;22.80;1.00;;;;;;5113604;28;20451;-56
2023/10/10 15:15:56;;;;;;;2.73;0.90;;;22.70;1.00;;;;;;5112316;28;20552;-57
2023/10/10 15:18:23;;;;;;;6.87;1.23;;;22.70;1.00;;;;;;5113234;28;20789;-55
2023/10/10 15:20:50;;;;;;;4.88;1.00;;;22.60;1.00;;;;;;5113072;28;20431;-55
2023/10/10 15:23:23;;;;;;;4.10;1.00;;;22.50;1.00;;;;;;5112336;28;20431;-55